Time;durP1;ratioP1;P1;durP2;ratioP2;P2;SDS_P1;SDS_P2;PMS_P1;PMS_P2;Temp;Humidity;BMP_temperature;BMP_pressure;BME280_temperature;BME280_humidity;BME280_pressure;Samples;Min_cycle;Max_cycle;Signal;HPM_P1;HPM_P2
2021/10/18 00:01:02;;;;;;;;;49.50;40.50;;;;;;;;2;261074913;261074913;-79
2021/10/18 00:10:30;;;;;;;;;44.00;34.50;;;;;;;;2;288085367;288085367;-78
2021/10/18 00:18:45;;;;;;;;;60.50;49.50;;;;;;;;2;261076301;261076301;-79
2021/10/18 00:28:13;;;;;;;;;60.00;47.50;;;;;;;;2;288085955;288085955;-79
2021/10/18 00:36:28;;;;;;;;;63.00;49.00;;;;;;;;2;261076826;261076826;-78
2021/10/18 00:45:56;;;;;;;;;52.50;43.00;;;;;;;;2;288084954;288084954;-78
2021/10/18 00:54:11;;;;;;;;;71.50;62.00;;;;;;;;2;261075365;261075365;-78
2021/10/18 01:03:39;;;;;;;;;53.00;43.50;;;;;;;;2;288084581;288084581;-78
2021/10/18 01:11:54;;;;;;;;;55.50;45.00;;;;;;;;2;261078410;261078410;-78
2021/10/18 01:21:22;;;;;;;;;51.00;42.00;;;;;;;;2;288083426;288083426;-78
2021/10/18 01:29:37;;;;;;;;;54.50;44.50;;;;;;;;2;261079209;261079209;-78
2021/10/18 01:39:05;;;;;;;;;64.50;49.00;;;;;;;;2;288086017;288086017;-78
2021/10/18 01:47:20;;;;;;;;;61.00;47.00;;;;;;;;2;261078253;261078253;-78
2021/10/18 01:56:48;;;;;;;;;56.50;46.00;;;;;;;;2;288083032;288083032;-78
2021/10/18 02:05:04;;;;;;;;;57.50;46.50;;;;;;;;2;261076566;261076566;-78
2021/10/18 02:14:31;;;;;;;;;63.00;50.50;;;;;;;;2;288083139;288083139;-78
2021/10/18 02:22:47;;;;;;;;;64.00;51.00;;;;;;;;2;261076342;261076342;-78
2021/10/18 02:32:15;;;;;;;;;60.50;49.00;;;;;;;;2;288087387;288087387;-78
2021/10/18 02:40:30;;;;;;;;;46.50;36.00;;;;;;;;2;261077216;261077216;-78
2021/10/18 02:49:58;;;;;;;;;49.50;40.50;;;;;;;;2;288083210;288083210;-77
2021/10/18 02:58:13;;;;;;;;;52.50;42.50;;;;;;;;2;261076706;261076706;-76
2021/10/18 03:07:40;;;;;;;;;65.00;48.50;;;;;;;;2;288082793;288082793;-76
2021/10/18 03:15:56;;;;;;;;;62.00;49.50;;;;;;;;2;261074575;261074575;-77
2021/10/18 03:25:23;;;;;;;;;67.00;53.50;;;;;;;;2;288086604;288086604;-77
2021/10/18 03:33:40;;;;;;;;;65.00;49.00;;;;;;;;2;261075052;261075052;-77
2021/10/18 03:43:07;;;;;;;;;54.50;43.00;;;;;;;;2;288080751;288080751;-78
2021/10/18 03:51:24;;;;;;;;;60.00;48.50;;;;;;;;2;261077582;261077582;-76
2021/10/18 04:00:51;;;;;;;;;57.50;47.00;;;;;;;;2;288084354;288084354;-76
2021/10/18 04:09:06;;;;;;;;;53.00;43.50;;;;;;;;2;261076441;261076441;-76
2021/10/18 04:18:34;;;;;;;;;51.50;42.00;;;;;;;;2;288084880;288084880;-76
2021/10/18 04:26:49;;;;;;;;;49.50;40.00;;;;;;;;2;261074336;261074336;-77
2021/10/18 04:36:17;;;;;;;;;51.00;35.00;;;;;;;;2;288083990;288083990;-76
2021/10/18 04:44:33;;;;;;;;;40.50;30.00;;;;;;;;2;261075519;261075519;-77
2021/10/18 04:54:00;;;;;;;;;41.00;35.50;;;;;;;;2;288087531;288087531;-77
2021/10/18 05:02:16;;;;;;;;;51.50;42.50;;;;;;;;2;261076163;261076163;-78
2021/10/18 05:11:43;;;;;;;;;59.00;46.00;;;;;;;;2;288082508;288082508;-78
2021/10/18 05:19:59;;;;;;;;;56.00;45.50;;;;;;;;2;261077970;261077970;-78
2021/10/18 05:29:26;;;;;;;;;58.50;47.50;;;;;;;;2;288086527;288086527;-79
2021/10/18 05:37:42;;;;;;;;;55.50;45.00;;;;;;;;2;261077510;261077510;-79
2021/10/18 05:47:10;;;;;;;;;60.50;46.00;;;;;;;;2;288082111;288082111;-79
2021/10/18 05:55:25;;;;;;;;;56.00;41.00;;;;;;;;2;261072933;261072933;-82
2021/10/18 06:04:53;;;;;;;;;48.50;38.50;;;;;;;;2;288084933;288084933;-81
2021/10/18 06:13:09;;;;;;;;;62.00;47.50;;;;;;;;2;261080695;261080695;-81
2021/10/18 06:22:37;;;;;;;;;36.00;31.00;;;;;;;;2;288081529;288081529;-81
2021/10/18 06:30:52;;;;;;;;;61.50;49.50;;;;;;;;2;261072788;261072788;-81
2021/10/18 06:40:20;;;;;;;;;60.50;48.00;;;;;;;;2;288084684;288084684;-81
2021/10/18 06:48:37;;;;;;;;;70.50;53.00;;;;;;;;2;261076713;261076713;-81
2021/10/18 06:58:04;;;;;;;;;63.00;50.00;;;;;;;;2;288082573;288082573;-81
2021/10/18 07:06:20;;;;;;;;;71.50;53.50;;;;;;;;2;261076585;261076585;-81
2021/10/18 07:15:47;;;;;;;;;74.50;60.50;;;;;;;;2;288084041;288084041;-81
2021/10/18 07:24:05;;;;;;;;;78.00;76.00;;;;;;;;2;261076209;261076209;-83
2021/10/18 07:33:32;;;;;;;;;73.00;67.00;;;;;;;;2;288083988;288083988;-80
2021/10/18 07:41:52;;;;;;;;;69.00;60.00;;;;;;;;2;261074213;261074213;-79
2021/10/18 07:51:20;;;;;;;;;83.00;83.00;;;;;;;;2;288082687;288082687;-79
2021/10/18 07:59:35;;;;;;;;;93.00;93.00;;;;;;;;2;261076069;261076069;-80
2021/10/18 08:09:05;;;;;;;;;71.50;57.50;;;;;;;;2;288084330;288084330;-80
2021/10/18 08:17:21;;;;;;;;;70.50;62.50;;;;;;;;2;261077276;261077276;-81
2021/10/18 08:30:08;;;;;;;;;69.00;60.00;;;;;;;;2;288083892;288083892;-82
2021/10/18 08:48:10;;;;;;;;;68.00;54.00;;;;;;;;2;288081698;288081698;-80
2021/10/18 08:56:25;;;;;;;;;64.50;50.00;;;;;;;;2;261077757;261077757;-80
2021/10/18 09:06:08;;;;;;;;;69.00;57.50;;;;;;;;2;288087082;288087082;-80
2021/10/18 09:14:24;;;;;;;;;81.00;74.50;;;;;;;;2;261076997;261076997;-79
2021/10/18 09:23:51;;;;;;;;;62.00;52.50;;;;;;;;2;288085644;288085644;-79
2021/10/18 09:32:07;;;;;;;;;72.00;64.00;;;;;;;;2;261078471;261078471;-80
2021/10/18 09:41:34;;;;;;;;;60.00;50.00;;;;;;;;2;288083632;288083632;-80
2021/10/18 10:54:54;;;;;;;;;67.00;56.50;;;;;;;;2;288081332;288081332;-78
2021/10/18 11:03:31;;;;;;;;;57.00;47.50;;;;;;;;2;261075982;261075982;-78
2021/10/18 11:13:06;;;;;;;;;55.00;46.50;;;;;;;;2;288084049;288084049;-78
2021/10/18 11:21:23;;;;;;;;;53.00;45.00;;;;;;;;2;261077768;261077768;-79
2021/10/18 11:30:58;;;;;;;;;69.00;56.00;;;;;;;;2;288083079;288083079;-79
2021/10/18 11:39:21;;;;;;;;;61.00;46.00;;;;;;;;2;261077680;261077680;-79
2021/10/18 11:48:48;;;;;;;;;48.00;41.50;;;;;;;;2;288084852;288084852;-79
2021/10/18 11:57:04;;;;;;;;;72.50;61.00;;;;;;;;2;261077278;261077278;-79
2021/10/18 12:06:44;;;;;;;;;65.00;49.50;;;;;;;;2;288085024;288085024;-79
2021/10/18 12:15:01;;;;;;;;;58.50;48.00;;;;;;;;2;261077084;261077084;-79
2021/10/18 12:24:34;;;;;;;;;71.50;62.50;;;;;;;;2;288085275;288085275;-79
2021/10/18 12:33:09;;;;;;;;;44.00;38.00;;;;;;;;2;261076290;261076290;-80
2021/10/18 12:42:36;;;;;;;;;55.50;47.00;;;;;;;;2;288084649;288084649;-79
2021/10/18 12:50:52;;;;;;;;;34.00;31.00;;;;;;;;2;261074594;261074594;-79
2021/10/18 13:00:27;;;;;;;;;68.00;59.50;;;;;;;;2;288085586;288085586;-79
2021/10/18 13:08:43;;;;;;;;;59.50;47.50;;;;;;;;2;261077023;261077023;-79
2021/10/18 13:18:11;;;;;;;;;63.50;53.00;;;;;;;;2;288085085;288085085;-79
2021/10/18 13:26:27;;;;;;;;;66.50;55.50;;;;;;;;2;261077555;261077555;-79
2021/10/18 13:35:54;;;;;;;;;63.00;52.50;;;;;;;;2;288084254;288084254;-78
2021/10/18 13:44:10;;;;;;;;;67.00;57.00;;;;;;;;2;261078730;261078730;-78
2021/10/18 13:53:37;;;;;;;;;63.50;52.50;;;;;;;;2;288082178;288082178;-79
2021/10/18 14:01:53;;;;;;;;;53.00;44.50;;;;;;;;2;261077054;261077054;-79
2021/10/18 14:11:20;;;;;;;;;60.50;47.00;;;;;;;;2;288084416;288084416;-79
2021/10/18 14:19:36;;;;;;;;;56.50;47.50;;;;;;;;2;261074473;261074473;-79
2021/10/18 14:29:04;;;;;;;;;61.50;52.00;;;;;;;;2;288084117;288084117;-79
2021/10/18 14:37:20;;;;;;;;;48.50;42.00;;;;;;;;2;261077468;261077468;-79
2021/10/18 14:46:48;;;;;;;;;51.50;43.00;;;;;;;;2;288086144;288086144;-79
2021/10/18 14:55:05;;;;;;;;;70.50;62.00;;;;;;;;2;261076511;261076511;-79
2021/10/18 15:04:32;;;;;;;;;58.00;48.50;;;;;;;;2;288084943;288084943;-79
2021/10/18 15:12:48;;;;;;;;;65.00;53.00;;;;;;;;2;261076250;261076250;-79
2021/10/18 15:22:16;;;;;;;;;57.50;45.00;;;;;;;;2;288084600;288084600;-79
2021/10/18 15:30:31;;;;;;;;;;;;;;;;;;2;261075495;261075495;-79
2021/10/18 15:40:05;;;;;;;;;62.50;53.00;;;;;;;;2;288083245;288083245;-78
2021/10/18 15:48:22;;;;;;;;;59.00;51.00;;;;;;;;2;261075625;261075625;-79
2021/10/18 15:57:49;;;;;;;;;66.00;58.00;;;;;;;;2;288081086;288081086;-79
2021/10/18 16:06:05;;;;;;;;;70.00;62.00;;;;;;;;2;261077165;261077165;-80
2021/10/18 16:15:33;;;;;;;;;64.50;55.50;;;;;;;;2;288084581;288084581;-85
2021/10/18 16:23:49;;;;;;;;;59.00;52.50;;;;;;;;2;261078470;261078470;-84
2021/10/18 16:33:17;;;;;;;;;72.50;66.00;;;;;;;;2;288083227;288083227;-78
2021/10/18 16:41:32;;;;;;;;;78.50;74.00;;;;;;;;2;261077782;261077782;-78
2021/10/18 16:51:01;;;;;;;;;73.00;66.50;;;;;;;;2;288082463;288082463;-77
2021/10/18 16:59:19;;;;;;;;;70.00;65.50;;;;;;;;2;261078889;261078889;-78
2021/10/18 17:08:46;;;;;;;;;81.50;68.50;;;;;;;;2;288082779;288082779;-78
2021/10/18 17:17:02;;;;;;;;;94.00;83.50;;;;;;;;2;261078645;261078645;-77
2021/10/18 17:26:29;;;;;;;;;99.50;93.50;;;;;;;;2;288085299;288085299;-78
2021/10/18 17:34:45;;;;;;;;;81.00;75.00;;;;;;;;2;261075310;261075310;-80
2021/10/18 17:44:13;;;;;;;;;72.50;66.00;;;;;;;;2;288084713;288084713;-80
2021/10/18 17:52:28;;;;;;;;;74.00;69.00;;;;;;;;2;261074506;261074506;-78
2021/10/18 18:01:55;;;;;;;;;112.00;112.00;;;;;;;;2;288083543;288083543;-78
2021/10/18 18:10:11;;;;;;;;;106.00;106.00;;;;;;;;2;261076241;261076241;-78
2021/10/18 18:19:39;;;;;;;;;102.00;102.00;;;;;;;;2;288083898;288083898;-80
2021/10/18 18:27:54;;;;;;;;;85.50;76.50;;;;;;;;2;261075547;261075547;-79
2021/10/18 18:37:23;;;;;;;;;132.50;132.50;;;;;;;;2;288082053;288082053;-79
2021/10/18 18:45:38;;;;;;;;;124.00;124.00;;;;;;;;2;261077396;261077396;-79
2021/10/18 18:55:06;;;;;;;;;141.00;135.00;;;;;;;;2;288085391;288085391;-79
2021/10/18 19:03:22;;;;;;;;;113.50;113.50;;;;;;;;2;261076105;261076105;-78
2021/10/18 19:12:50;;;;;;;;;99.50;98.50;;;;;;;;2;288082403;288082403;-78
2021/10/18 19:21:06;;;;;;;;;119.00;108.00;;;;;;;;2;261076964;261076964;-80
2021/10/18 19:30:33;;;;;;;;;107.00;107.00;;;;;;;;2;288082868;288082868;-79
2021/10/18 19:38:49;;;;;;;;;111.50;105.50;;;;;;;;2;261078691;261078691;-79
2021/10/18 19:48:17;;;;;;;;;107.00;107.00;;;;;;;;2;288081215;288081215;-80
2021/10/18 19:56:32;;;;;;;;;110.00;110.00;;;;;;;;2;261077325;261077325;-81
2021/10/18 20:06:00;;;;;;;;;98.50;98.50;;;;;;;;2;288087273;288087273;-80
2021/10/18 20:14:15;;;;;;;;;112.00;112.00;;;;;;;;2;261075179;261075179;-81
2021/10/18 20:23:43;;;;;;;;;89.50;89.50;;;;;;;;2;288085160;288085160;-83
2021/10/18 20:31:58;;;;;;;;;100.00;100.00;;;;;;;;2;261078819;261078819;-82
2021/10/18 20:41:27;;;;;;;;;120.00;120.00;;;;;;;;2;288084526;288084526;-84
2021/10/18 20:49:42;;;;;;;;;116.00;110.00;;;;;;;;2;261079089;261079089;-82
2021/10/18 20:59:10;;;;;;;;;128.00;128.00;;;;;;;;2;288084790;288084790;-80
2021/10/18 21:07:25;;;;;;;;;104.00;104.00;;;;;;;;2;261078038;261078038;-78
2021/10/18 21:16:52;;;;;;;;;127.50;124.50;;;;;;;;2;288084099;288084099;-79
2021/10/18 21:25:08;;;;;;;;;95.50;92.00;;;;;;;;2;261079177;261079177;-80
2021/10/18 21:34:37;;;;;;;;;123.50;123.50;;;;;;;;2;288088055;288088055;-80
2021/10/18 21:42:53;;;;;;;;;143.50;143.50;;;;;;;;2;261079076;261079076;-79
2021/10/18 21:52:23;;;;;;;;;123.50;123.50;;;;;;;;2;288085514;288085514;-79
2021/10/18 22:00:42;;;;;;;;;104.00;104.00;;;;;;;;2;261077328;261077328;-78
2021/10/18 22:10:10;;;;;;;;;135.00;135.00;;;;;;;;2;288085386;288085386;-78
2021/10/18 22:18:25;;;;;;;;;123.50;123.50;;;;;;;;2;261077770;261077770;-79
2021/10/18 22:27:53;;;;;;;;;112.00;112.00;;;;;;;;2;288087148;288087148;-79
2021/10/18 22:36:09;;;;;;;;;96.00;95.50;;;;;;;;2;261075916;261075916;-78
2021/10/18 22:45:36;;;;;;;;;111.00;108.50;;;;;;;;2;288085617;288085617;-78
2021/10/18 22:53:52;;;;;;;;;125.50;122.00;;;;;;;;2;261077324;261077324;-78
2021/10/18 23:03:19;;;;;;;;;114.00;114.00;;;;;;;;2;288081270;288081270;-78
2021/10/18 23:11:35;;;;;;;;;118.00;118.00;;;;;;;;2;261077421;261077421;-78
2021/10/18 23:21:02;;;;;;;;;131.00;129.00;;;;;;;;2;288086034;288086034;-78
2021/10/18 23:29:18;;;;;;;;;126.00;126.00;;;;;;;;2;261076166;261076166;-78
2021/10/18 23:38:45;;;;;;;;;123.50;123.50;;;;;;;;2;288087057;288087057;-78
2021/10/18 23:47:01;;;;;;;;;97.00;96.00;;;;;;;;2;261076875;261076875;-76
2021/10/18 23:56:28;;;;;;;;;99.50;99.50;;;;;;;;2;288083405;288083405;-76
